createdAt,value
2018-04-14T00:02:17.387Z,10.07
2018-04-14T00:04:45.611Z,10.73
2018-04-14T00:07:13.076Z,10.60
2018-04-14T00:09:40.520Z,10.17
2018-04-14T00:12:07.967Z,10.17
2018-04-14T00:14:35.420Z,8.30
2018-04-14T00:17:02.872Z,9.93
2018-04-14T00:19:30.327Z,13.77
2018-04-14T00:21:57.772Z,12.27
2018-04-14T00:24:25.975Z,9.10
2018-04-14T00:26:53.440Z,9.55
2018-04-14T00:29:20.886Z,10.00
2018-04-14T00:31:48.343Z,9.20
2018-04-14T00:34:15.804Z,9.00
2018-04-14T00:36:43.248Z,11.30
2018-04-14T00:39:10.707Z,9.33
2018-04-14T00:41:38.164Z,9.30
2018-04-14T00:44:05.620Z,9.75
2018-04-14T00:46:33.080Z,9.60
2018-04-14T00:49:00.551Z,10.10
2018-04-14T00:51:28.199Z,8.73
2018-04-14T00:53:55.644Z,8.70
2018-04-14T00:56:23.114Z,7.53
2018-04-14T00:58:50.551Z,8.23
2018-04-14T01:01:18.021Z,7.93
2018-04-14T01:03:45.478Z,7.62
2018-04-14T01:06:12.914Z,7.53
2018-04-14T01:08:40.363Z,6.80
2018-04-14T01:11:08.574Z,7.30
2018-04-14T01:13:36.047Z,8.00
2018-04-14T01:16:03.488Z,7.30
2018-04-14T01:18:30.945Z,9.65
2018-04-14T01:20:58.386Z,8.77
2018-04-14T01:23:25.832Z,9.25
2018-04-14T01:25:53.279Z,8.57
2018-04-14T01:28:21.492Z,7.37
2018-04-14T01:30:48.936Z,8.55
2018-04-14T01:33:16.381Z,9.43
2018-04-14T01:35:43.852Z,9.90
2018-04-14T01:38:11.291Z,9.93
2018-04-14T01:40:38.750Z,9.88
2018-04-14T01:43:06.200Z,9.50
2018-04-14T01:45:33.655Z,9.60
2018-04-14T01:48:01.102Z,9.82
2018-04-14T01:50:29.327Z,8.68
2018-04-14T01:52:56.782Z,9.48
2018-04-14T01:55:24.243Z,8.35
2018-04-14T01:57:51.695Z,8.60
2018-04-14T02:00:19.152Z,9.23
2018-04-14T02:02:46.599Z,7.87
2018-04-14T02:05:14.047Z,7.20
2018-04-14T02:07:41.491Z,7.25
2018-04-14T02:10:08.957Z,8.48
2018-04-14T02:12:36.419Z,8.80
2018-04-14T02:15:03.880Z,8.88
2018-04-14T02:17:31.343Z,8.77
2018-04-14T02:19:58.794Z,7.60
2018-04-14T02:22:26.226Z,9.48
2018-04-14T02:24:53.692Z,8.68
2018-04-14T02:27:21.144Z,9.38
2018-04-14T02:29:48.583Z,7.95
2018-04-14T02:32:16.977Z,8.00
2018-04-14T02:34:44.427Z,7.35
2018-04-14T02:37:11.879Z,6.70
2018-04-14T02:39:40.085Z,7.93
2018-04-14T02:42:07.532Z,8.40
2018-04-14T02:44:34.984Z,7.25
2018-04-14T02:47:02.418Z,7.65
2018-04-14T02:49:30.629Z,7.43
2018-04-14T02:51:58.074Z,7.70
2018-04-14T02:54:25.522Z,7.00
2018-04-14T02:56:53.730Z,7.30
2018-04-14T02:59:21.178Z,6.87
2018-04-14T03:01:48.629Z,6.80
2018-04-14T03:04:16.069Z,7.70
2018-04-14T03:06:43.502Z,7.90
2018-04-14T03:09:11.726Z,7.43
2018-04-14T03:11:39.155Z,7.60
2018-04-14T03:14:06.605Z,7.05
2018-04-14T03:16:34.047Z,7.43
2018-04-14T03:19:02.253Z,7.15
2018-04-14T03:21:29.690Z,6.45
2018-04-14T03:23:57.139Z,6.95
2018-04-14T03:26:25.354Z,6.97
2018-04-14T03:28:52.796Z,7.70
2018-04-14T03:31:20.344Z,7.25
2018-04-14T03:33:47.699Z,9.65
2018-04-14T03:36:15.150Z,8.15
2018-04-14T03:38:42.595Z,6.55
2018-04-14T03:41:10.815Z,6.72
2018-04-14T03:43:38.256Z,6.85
2018-04-14T03:46:05.709Z,6.45
2018-04-14T03:48:33.141Z,6.20
2018-04-14T03:51:01.373Z,7.37
2018-04-14T03:53:28.801Z,7.60
2018-04-14T03:55:56.247Z,7.57
2018-04-14T03:58:23.682Z,7.05
2018-04-14T04:00:51.898Z,6.70
2018-04-14T04:03:19.347Z,6.55
2018-04-14T04:05:46.785Z,7.68
2018-04-14T04:08:14.225Z,7.05
2018-04-14T04:10:42.439Z,6.85
2018-04-14T04:13:09.865Z,6.45
2018-04-14T04:15:37.329Z,6.07
2018-04-14T04:18:04.776Z,8.55
2018-04-14T04:20:44.887Z,7.03
2018-04-14T04:23:24.287Z,7.20
2018-04-14T04:25:51.726Z,7.40
2018-04-14T04:28:19.158Z,8.70
2018-04-14T04:30:46.618Z,7.65
2018-04-14T04:33:14.045Z,8.25
2018-04-14T04:35:41.495Z,8.45
2018-04-14T04:38:08.951Z,7.90
2018-04-14T04:40:36.389Z,7.10
2018-04-14T04:43:03.824Z,6.50
2018-04-14T04:45:31.272Z,6.53
2018-04-14T04:47:59.484Z,6.35
2018-04-14T04:50:26.915Z,6.60
2018-04-14T04:52:54.365Z,7.22
2018-04-14T04:55:22.561Z,6.68
2018-04-14T04:57:50.012Z,6.50
2018-04-14T05:00:17.450Z,7.10
2018-04-14T05:02:44.904Z,7.55
2018-04-14T05:05:13.123Z,7.68
2018-04-14T05:07:40.563Z,8.57
2018-04-14T05:10:08.020Z,9.10
2018-04-14T05:12:35.450Z,9.00
2018-04-14T05:15:02.900Z,8.27
2018-04-14T05:17:31.130Z,8.15
2018-04-14T05:19:58.568Z,8.95
2018-04-14T05:22:26.015Z,8.05
2018-04-14T05:24:53.468Z,7.90
2018-04-14T05:27:20.920Z,7.50
2018-04-14T05:29:48.369Z,7.28
2018-04-14T05:32:15.819Z,6.57
2018-04-14T05:34:43.264Z,6.75
2018-04-14T05:37:11.484Z,6.62
2018-04-14T05:39:38.913Z,7.10
2018-04-14T05:42:06.386Z,7.45
2018-04-14T05:44:33.832Z,6.25
2018-04-14T05:47:01.286Z,6.47
2018-04-14T05:49:28.723Z,8.32
2018-04-14T05:51:56.958Z,7.03
2018-04-14T05:54:24.390Z,7.20
2018-04-14T05:56:51.855Z,9.07
2018-04-14T05:59:19.348Z,6.85
2018-04-14T06:01:46.809Z,7.25
2018-04-14T06:04:14.300Z,7.07
2018-04-14T06:06:41.751Z,6.75
2018-04-14T06:09:09.255Z,6.82
2018-04-14T06:11:36.669Z,7.57
2018-04-14T06:14:04.123Z,7.47
2018-04-14T06:16:31.580Z,6.77
2018-04-14T06:18:59.185Z,7.10
2018-04-14T06:21:26.631Z,4.57
2018-04-14T06:23:54.065Z,4.70
2018-04-14T06:26:21.499Z,4.90
2018-04-14T06:28:48.971Z,4.23
2018-04-14T06:31:16.416Z,4.47
2018-04-14T06:33:44.691Z,4.20
2018-04-14T06:36:12.096Z,4.47
2018-04-14T06:38:39.559Z,3.87
2018-04-14T06:41:07.043Z,3.70
2018-04-14T06:43:34.490Z,4.00
2018-04-14T06:46:01.936Z,3.70
2018-04-14T06:48:29.461Z,3.20
2018-04-14T06:50:56.940Z,3.10
2018-04-14T06:53:24.389Z,4.03
2018-04-14T06:55:52.142Z,3.43
2018-04-14T06:58:19.551Z,4.03
2018-04-14T07:00:51.310Z,3.50
2018-04-14T07:03:19.545Z,3.40
2018-04-14T07:05:47.321Z,4.20
2018-04-14T07:08:14.808Z,3.87
2018-04-14T07:10:43.055Z,3.17
2018-04-14T07:13:10.497Z,3.93
2018-04-14T07:15:37.944Z,3.40
2018-04-14T07:18:05.400Z,3.70
2018-04-14T07:20:32.852Z,3.00
2018-04-14T07:23:00.269Z,2.83
2018-04-14T07:25:28.482Z,2.43
2018-04-14T07:27:56.159Z,2.60
2018-04-14T07:30:23.600Z,2.23
2018-04-14T07:32:51.049Z,3.07
2018-04-14T07:35:18.618Z,2.40
2018-04-14T07:37:46.055Z,2.50
2018-04-14T07:40:13.713Z,2.57
2018-04-14T07:42:41.170Z,2.50
2018-04-14T07:45:08.609Z,2.50
2018-04-14T07:47:36.065Z,1.93
2018-04-14T07:50:04.259Z,1.60
2018-04-14T07:52:31.713Z,2.00
2018-04-14T07:54:59.149Z,1.40
2018-04-14T07:57:27.368Z,1.50
2018-04-14T07:59:54.806Z,1.50
2018-04-14T08:02:22.709Z,1.60
2018-04-14T08:04:50.148Z,1.57
2018-04-14T08:07:17.619Z,1.20
2018-04-14T08:09:45.244Z,1.40
2018-04-14T08:12:12.689Z,1.47
2018-04-14T08:14:40.894Z,1.10
2018-04-14T08:17:08.448Z,0.93
2018-04-14T08:19:35.901Z,1.50
2018-04-14T08:22:03.346Z,1.00
2018-04-14T08:24:30.795Z,1.20
2018-04-14T08:26:58.994Z,1.53
2018-04-14T08:29:26.437Z,1.23
2018-04-14T08:31:53.879Z,1.40
2018-04-14T08:34:22.078Z,1.20
2018-04-14T08:36:49.513Z,1.43
2018-04-14T08:39:17.271Z,1.30
2018-04-14T08:41:45.493Z,1.40
2018-04-14T08:44:13.157Z,1.50
2018-04-14T08:46:40.643Z,1.53
2018-04-14T08:49:08.086Z,1.10
2018-04-14T08:51:35.705Z,1.40
2018-04-14T08:54:03.927Z,1.30
2018-04-14T08:56:31.405Z,1.00
2018-04-14T08:58:58.861Z,1.40
2018-04-14T09:01:26.359Z,1.13
2018-04-14T09:03:55.006Z,1.00
2018-04-14T09:06:23.215Z,0.90
2018-04-14T09:08:50.658Z,1.00
2018-04-14T09:11:18.104Z,1.00
2018-04-14T09:13:46.331Z,0.97
2018-04-14T09:16:13.803Z,0.83
2018-04-14T09:18:41.272Z,0.90
2018-04-14T09:21:08.711Z,1.00
2018-04-14T09:23:36.181Z,1.00
2018-04-14T09:26:03.631Z,0.90
2018-04-14T09:28:31.074Z,1.00
2018-04-14T09:30:58.539Z,1.10
2018-04-14T09:33:25.979Z,1.10
2018-04-14T09:35:53.414Z,1.40
2018-04-14T09:38:20.878Z,1.93
2018-04-14T09:40:48.327Z,1.90
2018-04-14T09:43:15.782Z,1.57
2018-04-14T09:45:43.595Z,1.23
2018-04-14T09:48:11.081Z,1.70
2018-04-14T09:50:39.290Z,1.17
2018-04-14T09:53:06.743Z,1.43
2018-04-14T09:55:34.187Z,1.10
2018-04-14T09:58:01.632Z,1.00
2018-04-14T10:00:29.091Z,1.23
2018-04-14T10:03:00.431Z,1.00
2018-04-14T10:05:27.810Z,1.23
2018-04-14T10:07:55.252Z,1.27
2018-04-14T10:10:22.760Z,1.00
2018-04-14T10:12:50.917Z,1.23
2018-04-14T10:15:18.434Z,0.90
2018-04-14T10:17:45.882Z,1.10
2018-04-14T10:20:14.093Z,1.53
2018-04-14T10:22:41.540Z,0.80
2018-04-14T10:25:08.975Z,1.00
2018-04-14T10:27:36.428Z,0.90
2018-04-14T10:30:04.691Z,0.90
2018-04-14T10:32:32.124Z,1.30
2018-04-14T10:34:59.576Z,0.90
2018-04-14T10:37:27.028Z,1.10
2018-04-14T10:39:54.547Z,1.20
2018-04-14T10:42:21.987Z,1.00
2018-04-14T10:44:50.211Z,1.07
2018-04-14T10:47:17.658Z,1.20
2018-04-14T10:49:45.147Z,1.13
2018-04-14T10:52:12.577Z,0.97
2018-04-14T10:54:40.032Z,0.87
2018-04-14T10:57:07.466Z,1.20
2018-04-14T10:59:34.910Z,0.77
2018-04-14T11:02:02.351Z,1.10
2018-04-14T11:04:30.572Z,0.80
2018-04-14T11:06:58.013Z,1.00
2018-04-14T11:09:25.529Z,0.77
2018-04-14T11:11:52.972Z,1.10
2018-04-14T11:14:20.647Z,0.77
2018-04-14T11:16:48.092Z,1.00
2018-04-14T11:19:16.310Z,0.80
2018-04-14T11:21:43.973Z,0.90
2018-04-14T11:24:11.462Z,0.90
2018-04-14T11:26:38.907Z,0.90
2018-04-14T11:29:06.359Z,0.90
2018-04-14T11:31:33.797Z,0.90
2018-04-14T11:34:01.252Z,0.90
2018-04-14T11:36:28.690Z,1.10
2018-04-14T11:38:56.891Z,0.90
2018-04-14T11:41:24.341Z,0.83
2018-04-14T11:43:51.793Z,1.20
2018-04-14T11:46:19.255Z,0.90
2018-04-14T11:48:46.691Z,1.17
2018-04-14T11:51:14.135Z,1.10
2018-04-14T11:53:42.339Z,1.40
2018-04-14T11:56:09.787Z,0.93
2018-04-14T11:58:37.248Z,0.90
2018-04-14T12:01:04.677Z,1.10
2018-04-14T12:03:32.891Z,1.10
2018-04-14T12:06:00.333Z,1.00
2018-04-14T12:08:27.777Z,1.00
2018-04-14T12:10:55.989Z,0.70
2018-04-14T12:13:23.432Z,0.80
2018-04-14T12:15:50.888Z,0.80
2018-04-14T12:18:18.323Z,1.10
2018-04-14T12:20:46.528Z,0.90
2018-04-14T12:23:13.980Z,0.83
2018-04-14T12:25:41.427Z,1.00
2018-04-14T12:28:08.967Z,0.83
2018-04-14T12:30:37.189Z,1.00
2018-04-14T12:33:05.391Z,1.33
2018-04-14T12:35:32.848Z,1.13
2018-04-14T12:37:59.797Z,1.13
2018-04-14T12:40:27.258Z,1.07
2018-04-14T12:42:54.700Z,1.13
2018-04-14T12:45:22.137Z,1.10
2018-04-14T12:47:49.597Z,1.00
2018-04-14T12:50:17.042Z,1.30
2018-04-14T12:52:44.485Z,1.30
2018-04-14T12:55:11.939Z,1.80
2018-04-14T12:57:39.378Z,1.07
2018-04-14T13:00:06.832Z,1.00
2018-04-14T13:02:34.265Z,1.20
2018-04-14T13:05:02.481Z,0.90
2018-04-14T13:07:29.925Z,1.00
2018-04-14T13:09:57.374Z,0.90
2018-04-14T13:12:24.824Z,1.10
2018-04-14T13:14:53.042Z,1.20
2018-04-14T13:17:20.485Z,1.17
2018-04-14T13:19:47.935Z,1.00
2018-04-14T13:22:15.389Z,0.83
2018-04-14T13:24:42.857Z,1.30
2018-04-14T13:27:10.285Z,1.17
2018-04-14T13:29:38.490Z,1.20
2018-04-14T13:32:05.944Z,1.53
2018-04-14T13:34:33.392Z,1.13
2018-04-14T13:37:00.835Z,1.30
2018-04-14T13:39:29.036Z,1.00
2018-04-14T13:41:56.489Z,1.20
2018-04-14T13:44:23.929Z,1.67
2018-04-14T13:46:51.382Z,1.00
2018-04-14T13:49:18.820Z,1.10
2018-04-14T13:51:46.456Z,0.97
2018-04-14T13:54:13.947Z,1.10
2018-04-14T13:56:41.357Z,1.00
2018-04-14T13:59:08.823Z,1.20
2018-04-14T14:01:36.238Z,1.03
2018-04-14T14:04:03.670Z,1.63
2018-04-14T14:06:31.110Z,1.40
2018-04-14T14:08:59.324Z,1.00
2018-04-14T14:11:26.781Z,1.00
2018-04-14T14:13:54.210Z,1.07
2018-04-14T14:16:22.431Z,0.97
2018-04-14T14:18:49.881Z,1.47
2018-04-14T14:21:17.321Z,1.40
2018-04-14T14:23:44.758Z,1.40
2018-04-14T14:26:12.965Z,1.37
2018-04-14T14:28:40.411Z,1.50
2018-04-14T14:31:07.857Z,1.47
2018-04-14T14:33:35.351Z,1.67
2018-04-14T14:36:02.744Z,1.40
2018-04-14T14:38:30.961Z,1.37
2018-04-14T14:40:58.403Z,1.63
2018-04-14T14:43:25.851Z,1.30
2018-04-14T14:45:53.281Z,1.10
2018-04-14T14:48:21.493Z,1.30
2018-04-14T14:50:48.957Z,1.70
2018-04-14T14:53:16.434Z,1.50
2018-04-14T14:55:43.878Z,1.10
2018-04-14T14:58:11.418Z,1.70
2018-04-14T15:00:38.882Z,1.40
2018-04-14T15:03:06.323Z,1.23
2018-04-14T15:05:33.755Z,1.27
2018-04-14T15:08:01.972Z,1.50
2018-04-14T15:10:29.428Z,1.73
2018-04-14T15:12:56.876Z,1.40
2018-04-14T15:15:24.311Z,1.50
2018-04-14T15:17:52.519Z,1.30
2018-04-14T15:20:19.962Z,1.17
2018-04-14T15:22:47.390Z,1.27
2018-04-14T15:25:15.667Z,1.50
2018-04-14T15:27:43.063Z,1.20
2018-04-14T15:30:10.518Z,1.53
2018-04-14T15:32:37.965Z,1.63
2018-04-14T15:35:05.399Z,1.30
2018-04-14T15:37:33.610Z,1.23
2018-04-14T15:40:01.050Z,1.30
2018-04-14T15:42:28.495Z,1.30
2018-04-14T15:44:55.930Z,1.50
2018-04-14T15:47:24.144Z,1.40
2018-04-14T15:49:51.580Z,1.43
2018-04-14T15:52:19.029Z,1.10
2018-04-14T15:54:47.251Z,1.27
2018-04-14T15:57:14.710Z,1.20
2018-04-14T15:59:42.137Z,1.27
2018-04-14T16:02:09.599Z,1.20
2018-04-14T16:04:37.068Z,1.20
2018-04-14T16:07:04.489Z,1.83
2018-04-14T16:09:32.698Z,1.60
2018-04-14T16:12:00.142Z,1.20
2018-04-14T16:14:27.602Z,1.10
2018-04-14T16:16:55.062Z,1.53
2018-04-14T16:19:22.513Z,1.20
2018-04-14T16:21:49.967Z,1.27
2018-04-14T16:24:17.406Z,1.30
2018-04-14T16:26:44.857Z,1.37
2018-04-14T16:29:13.060Z,1.40
2018-04-14T16:31:40.503Z,1.20
2018-04-14T16:34:07.985Z,2.00
2018-04-14T16:36:35.437Z,2.03
2018-04-14T16:39:02.881Z,1.90
2018-04-14T16:41:30.336Z,1.50
2018-04-14T16:43:57.790Z,1.50
2018-04-14T16:46:25.226Z,1.00
2018-04-14T16:48:53.444Z,1.67
2018-04-14T16:51:20.882Z,1.57
2018-04-14T16:53:48.328Z,1.73
2018-04-14T16:56:15.778Z,1.33
2018-04-14T16:58:43.228Z,1.90
2018-04-14T17:01:11.457Z,2.10
2018-04-14T17:03:38.887Z,1.97
2018-04-14T17:06:06.335Z,2.20
2018-04-14T17:08:33.775Z,1.50
2018-04-14T17:11:01.232Z,1.63
2018-04-14T17:13:29.448Z,1.60
2018-04-14T17:15:56.894Z,1.80
2018-04-14T17:18:24.339Z,1.43
2018-04-14T17:20:51.777Z,1.53
2018-04-14T17:23:19.220Z,2.50
2018-04-14T17:25:47.429Z,1.73
2018-04-14T17:28:14.864Z,1.40
2018-04-14T17:30:42.303Z,1.50
2018-04-14T17:33:10.513Z,2.30
2018-04-14T17:35:38.788Z,1.90
2018-04-14T17:38:06.259Z,2.00
2018-04-14T17:40:34.434Z,2.10
2018-04-14T17:43:01.894Z,2.17
2018-04-14T17:45:29.342Z,1.80
2018-04-14T17:47:56.788Z,1.73
2018-04-14T17:50:24.259Z,2.07
2018-04-14T17:52:51.696Z,1.67
2018-04-14T17:55:19.145Z,1.87
2018-04-14T17:57:47.349Z,1.77
2018-04-14T18:00:14.782Z,2.10
2018-04-14T18:02:42.241Z,1.80
2018-04-14T18:05:09.678Z,2.23
2018-04-14T18:07:37.905Z,2.37
2018-04-14T18:10:05.334Z,2.40
2018-04-14T18:12:32.800Z,2.60
2018-04-14T18:15:00.232Z,2.57
2018-04-14T18:17:27.689Z,3.03
2018-04-14T18:19:55.896Z,2.17
2018-04-14T18:22:23.340Z,2.00
2018-04-14T18:24:50.793Z,2.27
2018-04-14T18:27:18.229Z,2.10
2018-04-14T18:29:45.675Z,2.07
2018-04-14T18:32:13.896Z,1.77
2018-04-14T18:34:41.342Z,2.10
2018-04-14T18:37:08.791Z,2.33
2018-04-14T18:39:36.273Z,2.40
2018-04-14T18:42:03.661Z,3.07
2018-04-14T18:44:31.111Z,3.03
2018-04-14T18:46:58.554Z,3.30
2018-04-14T18:49:26.001Z,2.63
2018-04-14T18:51:53.444Z,2.80
2018-04-14T18:54:20.885Z,2.23
2018-04-14T18:56:48.330Z,2.33
2018-04-14T18:59:15.773Z,2.10
2018-04-14T19:01:43.242Z,2.43
2018-04-14T19:04:10.689Z,2.77
2018-04-14T19:06:38.129Z,2.93
2018-04-14T19:09:06.371Z,2.60
2018-04-14T19:11:33.802Z,3.03
2018-04-14T19:14:01.249Z,2.70
2018-04-14T19:16:28.682Z,2.47
2018-04-14T19:18:56.903Z,3.00
2018-04-14T19:21:24.346Z,3.80
2018-04-14T19:23:51.799Z,3.03
2018-04-14T19:26:19.248Z,3.20
2018-04-14T19:28:46.687Z,2.77
2018-04-14T19:31:14.896Z,3.47
2018-04-14T19:33:42.339Z,2.80
2018-04-14T19:36:09.881Z,3.50
2018-04-14T19:38:38.073Z,3.10
2018-04-14T19:41:05.525Z,2.60
2018-04-14T19:43:32.962Z,2.80
2018-04-14T19:46:01.171Z,2.90
2018-04-14T19:48:28.649Z,2.90
2018-04-14T19:50:56.100Z,2.67
2018-04-14T19:53:23.538Z,2.63
2018-04-14T19:55:50.988Z,2.93
2018-04-14T19:58:18.455Z,2.80
2018-04-14T20:00:45.902Z,11.30
2018-04-14T20:03:13.356Z,9.03
2018-04-14T20:05:40.809Z,4.97
2018-04-14T20:08:08.267Z,3.30
2018-04-14T20:10:35.708Z,3.17
2018-04-14T20:13:03.910Z,2.83
2018-04-14T20:15:31.366Z,2.50
2018-04-14T20:17:58.796Z,3.20
2018-04-14T20:20:27.011Z,3.27
2018-04-14T20:22:54.456Z,3.30
2018-04-14T20:25:21.903Z,2.70
2018-04-14T20:27:49.364Z,4.43
2018-04-14T20:30:16.807Z,2.93
2018-04-14T20:32:44.250Z,2.10
2018-04-14T20:35:12.454Z,2.63
2018-04-14T20:37:39.911Z,2.77
2018-04-14T20:40:07.364Z,2.50
2018-04-14T20:42:34.797Z,2.70
2018-04-14T20:45:02.248Z,3.03
2018-04-14T20:47:29.691Z,2.57
2018-04-14T20:49:57.137Z,2.40
2018-04-14T20:52:24.583Z,3.20
2018-04-14T20:54:52.021Z,2.60
2018-04-14T20:57:19.470Z,2.47
2018-04-14T20:59:46.913Z,2.40
2018-04-14T21:02:14.476Z,2.10
2018-04-14T21:04:41.920Z,1.70
2018-04-14T21:07:09.367Z,1.90
2018-04-14T21:09:36.815Z,2.17
2018-04-14T21:12:05.018Z,1.93
2018-04-14T21:14:32.469Z,2.30
2018-04-14T21:16:59.906Z,2.30
2018-04-14T21:19:27.362Z,2.10
2018-04-14T21:21:55.920Z,2.87
2018-04-14T21:24:23.376Z,2.00
2018-04-14T21:26:50.810Z,2.70
2018-04-14T21:29:18.256Z,1.87
2018-04-14T21:31:45.702Z,1.77
2018-04-14T21:34:13.144Z,2.90
2018-04-14T21:36:40.588Z,2.20
2018-04-14T21:39:08.031Z,2.50
2018-04-14T21:41:36.249Z,1.93
2018-04-14T21:44:03.701Z,2.63
2018-04-14T21:46:31.151Z,2.50
2018-04-14T21:48:58.595Z,2.20
2018-04-14T21:51:26.048Z,2.03
2018-04-14T21:53:53.506Z,2.17
2018-04-14T21:56:20.923Z,2.07
2018-04-14T21:58:48.386Z,2.30
2018-04-14T22:01:15.835Z,2.30
2018-04-14T22:03:43.277Z,2.53
2018-04-14T22:06:10.736Z,2.20
2018-04-14T22:08:38.188Z,2.50
2018-04-14T22:11:05.635Z,2.27
2018-04-14T22:13:33.074Z,2.27
2018-04-14T22:16:00.536Z,3.10
2018-04-14T22:18:27.979Z,2.80
2018-04-14T22:20:55.440Z,2.30
2018-04-14T22:23:22.875Z,2.93
2018-04-14T22:25:50.332Z,2.53
2018-04-14T22:28:17.780Z,3.50
2018-04-14T22:30:46.001Z,2.77
2018-04-14T22:33:13.440Z,2.40
2018-04-14T22:35:40.927Z,3.47
2018-04-14T22:38:08.385Z,3.63
2018-04-14T22:40:35.864Z,3.60
2018-04-14T22:43:03.311Z,3.27
2018-04-14T22:45:30.759Z,2.80
2018-04-14T22:47:58.213Z,3.07
2018-04-14T22:50:25.664Z,2.80
2018-04-14T22:52:53.120Z,3.10
2018-04-14T22:55:20.572Z,3.43
2018-04-14T22:57:48.023Z,4.00
2018-04-14T23:00:17.401Z,3.00
2018-04-14T23:02:44.842Z,3.83
2018-04-14T23:05:12.286Z,2.63
2018-04-14T23:07:40.509Z,4.07
2018-04-14T23:10:07.980Z,3.60
2018-04-14T23:12:35.424Z,3.23
2018-04-14T23:15:02.870Z,3.00
2018-04-14T23:17:30.324Z,3.13
2018-04-14T23:19:57.763Z,3.60
2018-04-14T23:22:25.211Z,4.37
2018-04-14T23:24:52.660Z,4.10
2018-04-14T23:27:20.885Z,4.50
2018-04-14T23:29:48.335Z,4.43
2018-04-14T23:32:15.778Z,5.20
2018-04-14T23:34:43.222Z,4.83
2018-04-14T23:37:10.676Z,4.20
2018-04-14T23:39:38.118Z,4.20
2018-04-14T23:42:05.567Z,3.90
2018-04-14T23:44:33.775Z,3.67
2018-04-14T23:47:01.203Z,3.70
2018-04-14T23:49:29.414Z,4.10
2018-04-14T23:51:56.865Z,3.90
2018-04-14T23:54:24.303Z,4.00
2018-04-14T23:56:51.748Z,3.33
2018-04-14T23:59:19.187Z,3.80
